Time;durP1;ratioP1;P1;durP2;ratioP2;P2;SDS_P1;SDS_P2;PMS_P1;PMS_P2;Temp;Humidity;BMP_temperature;BMP_pressure;BME280_temperature;BME280_humidity;BME280_pressure;Samples;Min_cycle;Max_cycle;Signal;HPM_P1;HPM_P2
2023/05/27 00:01:59;;;;;;;20.00;7.93;;;15.60;86.20;;;;;;5071526;28;20497;-61
2023/05/27 00:04:26;;;;;;;20.97;6.50;;;15.60;86.30;;;;;;5057604;27;20488;-61
2023/05/27 00:06:54;;;;;;;10.37;5.23;;;15.50;86.30;;;;;;5097505;27;20730;-61
2023/05/27 00:09:21;;;;;;;11.67;5.50;;;15.50;85.90;;;;;;5059238;28;20550;-61
2023/05/27 00:11:48;;;;;;;15.43;5.27;;;15.40;86.10;;;;;;5061077;27;20485;-61
2023/05/27 00:14:17;;;;;;;11.43;5.30;;;15.40;86.00;;;;;;5045248;27;20478;-61
2023/05/27 00:16:46;;;;;;;22.07;5.53;;;15.40;86.60;;;;;;5082806;27;21020;-61
2023/05/27 00:19:13;;;;;;;16.07;6.53;;;15.30;86.00;;;;;;5073902;28;20869;-61
2023/05/27 00:21:40;;;;;;;17.67;6.20;;;15.30;86.10;;;;;;5071532;28;20493;-61
2023/05/27 00:24:09;;;;;;;21.67;6.17;;;15.30;85.50;;;;;;5069349;28;20857;-61
2023/05/27 00:26:35;;;;;;;16.00;5.10;;;15.20;86.50;;;;;;5062748;28;20536;-61
2023/05/27 00:29:02;;;;;;;19.63;6.13;;;15.20;86.30;;;;;;5085554;27;20484;-61
2023/05/27 00:31:29;;;;;;;11.13;5.00;;;15.10;86.30;;;;;;5069479;27;20507;-61
2023/05/27 00:33:56;;;;;;;22.80;6.33;;;15.10;86.20;;;;;;5067410;27;20476;-61
2023/05/27 00:36:23;;;;;;;12.40;5.40;;;15.10;85.90;;;;;;5096735;27;20480;-61
2023/05/27 00:38:49;;;;;;;13.23;6.03;;;15.10;86.20;;;;;;5078858;27;20898;-60
2023/05/27 00:41:18;;;;;;;15.10;5.60;;;15.00;86.00;;;;;;5088737;27;20481;-61
2023/05/27 00:43:45;;;;;;;17.73;6.20;;;15.00;86.00;;;;;;5071900;27;20476;-61
2023/05/27 00:46:12;;;;;;;15.50;6.50;;;14.90;85.90;;;;;;5087257;27;20993;-61
2023/05/27 00:48:39;;;;;;;14.17;5.57;;;14.90;86.20;;;;;;5078344;27;20781;-61
2023/05/27 00:51:06;;;;;;;19.60;6.70;;;14.90;87.00;;;;;;5062540;28;20487;-61
2023/05/27 00:53:39;;;;;;;20.73;5.90;;;14.90;85.30;;;;;;5075972;27;21016;-61
2023/05/27 00:56:07;;;;;;;11.30;6.20;;;14.90;86.30;;;;;;5071428;27;20475;-61
2023/05/27 00:58:36;;;;;;;18.60;6.00;;;14.80;86.00;;;;;;5077306;27;20479;-61
2023/05/27 01:01:03;;;;;;;13.47;6.43;;;14.80;86.00;;;;;;5074742;27;20577;-61
2023/05/27 01:03:32;;;;;;;15.17;5.57;;;14.80;86.40;;;;;;5071105;28;20493;-61
2023/05/27 01:06:09;;;;;;;19.20;7.03;;;14.80;86.30;;;;;;5059964;28;20486;-61
2023/05/27 01:08:42;;;;;;;11.67;6.03;;;14.70;86.10;;;;;;5060827;27;20501;-61
2023/05/27 01:11:11;;;;;;;22.83;6.60;;;14.80;86.60;;;;;;5065635;28;20907;-61
2023/05/27 01:13:43;;;;;;;15.87;5.93;;;14.70;86.20;;;;;;5079394;27;20548;-61
2023/05/27 01:16:13;;;;;;;19.10;8.30;;;14.70;86.50;;;;;;5098965;27;20493;-61
2023/05/27 01:18:43;;;;;;;13.67;5.67;;;14.70;85.90;;;;;;5065541;27;20477;-61
2023/05/27 01:21:13;;;;;;;12.20;5.40;;;14.70;86.00;;;;;;5085653;27;21314;-61
2023/05/27 01:23:44;;;;;;;19.77;7.00;;;14.70;85.90;;;;;;5081918;27;20485;-61
2023/05/27 01:26:11;;;;;;;14.83;5.23;;;14.60;85.70;;;;;;5096091;27;20486;-61
2023/05/27 01:28:38;;;;;;;10.63;5.40;;;14.60;86.10;;;;;;5064818;27;20479;-60
2023/05/27 01:31:13;;;;;;;9.83;5.57;;;14.50;86.10;;;;;;5080609;27;20795;-61
2023/05/27 01:33:47;;;;;;;13.77;5.90;;;14.50;86.40;;;;;;5085608;27;20812;-61
2023/05/27 01:36:21;;;;;;;16.07;5.53;;;14.40;85.30;;;;;;5083155;27;20950;-60
2023/05/27 01:38:50;;;;;;;17.40;5.20;;;14.40;85.90;;;;;;5056269;28;20490;-61
2023/05/27 01:41:17;;;;;;;13.90;6.33;;;14.40;86.30;;;;;;5073213;27;20500;-61
2023/05/27 01:43:44;;;;;;;11.83;5.97;;;14.40;86.10;;;;;;5068898;27;20832;-60
2023/05/27 01:46:11;;;;;;;13.43;6.30;;;14.30;86.30;;;;;;5069065;27;21019;-61
2023/05/27 01:48:38;;;;;;;11.60;5.73;;;14.30;85.90;;;;;;5068551;27;20839;-60
2023/05/27 01:51:05;;;;;;;20.87;6.67;;;14.20;86.30;;;;;;5066817;27;20590;-60
2023/05/27 01:53:32;;;;;;;16.50;6.37;;;14.20;86.70;;;;;;5067459;28;20513;-61
2023/05/27 01:56:01;;;;;;;13.47;5.03;;;14.20;85.90;;;;;;5065821;28;21035;-60
2023/05/27 01:58:28;;;;;;;12.63;5.17;;;14.20;86.30;;;;;;5070768;28;20491;-61
2023/05/27 02:00:55;;;;;;;11.77;5.00;;;14.10;86.00;;;;;;5067692;28;20485;-61
2023/05/27 02:03:22;;;;;;;10.83;5.50;;;14.00;86.20;;;;;;5086508;27;20459;-60
2023/05/27 02:05:48;;;;;;;13.03;5.83;;;14.00;86.10;;;;;;5091393;27;20477;-61
2023/05/27 02:08:15;;;;;;;11.60;5.90;;;13.90;86.50;;;;;;5066921;28;20482;-60
2023/05/27 02:10:42;;;;;;;16.00;5.83;;;13.90;86.50;;;;;;5071118;28;21407;-60
2023/05/27 02:13:10;;;;;;;16.83;5.60;;;13.90;86.60;;;;;;5068350;28;20477;-61
2023/05/27 02:15:37;;;;;;;20.20;6.80;;;13.80;86.30;;;;;;5071081;28;20834;-60
2023/05/27 02:18:05;;;;;;;14.07;6.80;;;13.80;86.60;;;;;;5067895;28;20487;-61
2023/05/27 02:20:31;;;;;;;8.63;4.97;;;13.80;86.20;;;;;;5065538;28;20839;-60
2023/05/27 02:22:58;;;;;;;14.83;5.20;;;13.70;86.60;;;;;;5063728;28;20487;-60
2023/05/27 02:25:25;;;;;;;12.67;5.93;;;13.40;86.20;;;;;;5076704;27;21061;-61
2023/05/27 02:27:52;;;;;;;12.33;5.03;;;13.70;86.70;;;;;;5080743;27;20553;-60
2023/05/27 02:30:20;;;;;;;23.07;5.50;;;13.70;86.80;;;;;;5069950;28;20470;-60
2023/05/27 02:32:48;;;;;;;13.63;5.23;;;13.60;86.90;;;;;;5068064;28;20470;-60
2023/05/27 02:35:15;;;;;;;9.63;5.50;;;13.60;86.80;;;;;;5060396;27;20826;-60
2023/05/27 02:37:42;;;;;;;16.00;5.67;;;13.60;87.00;;;;;;5080070;27;20482;-60
2023/05/27 02:40:10;;;;;;;15.20;6.93;;;13.50;86.90;;;;;;5069490;28;20471;-60
2023/05/27 02:42:37;;;;;;;16.30;6.70;;;13.50;87.20;;;;;;5076794;27;21346;-60
2023/05/27 02:45:05;;;;;;;12.30;6.83;;;13.90;87.60;;;;;;5070629;28;20482;-60
2023/05/27 02:47:33;;;;;;;15.43;4.60;;;13.40;87.60;;;;;;5064220;27;20494;-60
2023/05/27 02:50:00;;;;;;;8.70;5.40;;;13.40;87.10;;;;;;5092227;28;21272;-60
2023/05/27 02:52:27;;;;;;;10.67;5.60;;;13.40;87.40;;;;;;5069447;28;20478;-60
2023/05/27 02:54:54;;;;;;;7.80;5.53;;;13.40;87.40;;;;;;5090526;27;20480;-60
2023/05/27 02:57:21;;;;;;;11.50;5.87;;;13.30;87.10;;;;;;5071905;27;20565;-60
2023/05/27 02:59:48;;;;;;;19.20;5.70;;;13.30;87.40;;;;;;5086732;27;20475;-60
2023/05/27 03:02:15;;;;;;;14.93;6.67;;;13.30;87.40;;;;;;5063357;27;20851;-60
2023/05/27 03:04:43;;;;;;;13.17;5.10;;;13.30;86.60;;;;;;5095104;27;20500;-60
2023/05/27 03:07:10;;;;;;;18.17;6.53;;;13.30;87.20;;;;;;5080711;28;20531;-60
2023/05/27 03:09:37;;;;;;;11.93;7.23;;;13.30;87.30;;;;;;5075233;27;20508;-60
2023/05/27 03:12:05;;;;;;;18.97;6.60;;;13.20;87.30;;;;;;5064448;27;20484;-60
2023/05/27 03:14:32;;;;;;;14.10;6.33;;;13.20;87.50;;;;;;5075345;27;20911;-60
2023/05/27 03:16:59;;;;;;;14.13;4.93;;;13.20;87.40;;;;;;5079562;28;20474;-60
2023/05/27 03:19:25;;;;;;;16.03;7.20;;;13.30;87.70;;;;;;5070855;28;20481;-60
2023/05/27 03:21:54;;;;;;;12.60;5.03;;;13.20;87.40;;;;;;5064448;28;20838;-60
2023/05/27 03:24:20;;;;;;;15.77;5.60;;;13.20;87.50;;;;;;5066083;27;21655;-60
2023/05/27 03:26:47;;;;;;;16.37;5.63;;;13.20;87.60;;;;;;5099472;27;20879;-60
2023/05/27 03:29:15;;;;;;;19.17;7.50;;;13.20;87.80;;;;;;5057001;28;20483;-60
2023/05/27 03:31:42;;;;;;;14.07;5.23;;;13.20;87.80;;;;;;5082793;27;21312;-60
2023/05/27 03:34:09;;;;;;;17.03;7.03;;;13.20;87.70;;;;;;5070338;27;20488;-60
2023/05/27 03:36:37;;;;;;;20.17;6.70;;;13.10;87.50;;;;;;5086636;27;20478;-60
2023/05/27 03:39:05;;;;;;;12.93;6.40;;;13.10;87.90;;;;;;5074636;28;20522;-60
2023/05/27 03:41:32;;;;;;;12.20;5.43;;;13.10;88.00;;;;;;5076943;28;20474;-60
2023/05/27 03:43:59;;;;;;;10.60;5.60;;;13.10;88.00;;;;;;5074761;27;20472;-60
2023/05/27 03:46:26;;;;;;;20.83;6.00;;;13.10;87.90;;;;;;5083628;27;20476;-60
2023/05/27 03:48:53;;;;;;;16.77;7.37;;;13.10;87.40;;;;;;5081488;27;20471;-60
2023/05/27 03:51:21;;;;;;;20.47;6.27;;;13.10;88.10;;;;;;5079768;27;20489;-60
2023/05/27 03:53:48;;;;;;;14.60;5.53;;;13.10;88.00;;;;;;5055116;28;20508;-60
2023/05/27 03:56:16;;;;;;;18.13;6.30;;;13.10;88.20;;;;;;5059449;28;20474;-60
2023/05/27 03:58:43;;;;;;;11.03;5.27;;;13.10;88.10;;;;;;5076751;28;20482;-60
2023/05/27 04:01:11;;;;;;;22.40;6.63;;;13.10;88.00;;;;;;5060019;28;20493;-60
2023/05/27 04:03:39;;;;;;;11.80;5.60;;;13.10;88.20;;;;;;5070315;27;20483;-60
2023/05/27 04:06:06;;;;;;;13.00;6.33;;;13.20;88.10;;;;;;5065451;28;20932;-60
2023/05/27 04:08:35;;;;;;;15.10;6.10;;;13.20;88.10;;;;;;5074636;27;20965;-60
2023/05/27 04:11:02;;;;;;;12.83;6.33;;;13.20;88.10;;;;;;5091466;27;20624;-60
2023/05/27 04:13:30;;;;;;;16.57;6.63;;;13.20;88.30;;;;;;5077956;27;20476;-60
2023/05/27 04:15:59;;;;;;;9.83;5.10;;;13.20;88.20;;;;;;5075164;27;20478;-60
2023/05/27 04:18:26;;;;;;;14.40;6.00;;;13.20;88.30;;;;;;5073664;28;20507;-60
2023/05/27 04:20:52;;;;;;;15.50;6.20;;;13.20;88.30;;;;;;5094343;27;20486;-60
2023/05/27 04:23:19;;;;;;;20.27;6.03;;;13.20;88.30;;;;;;5071129;27;21000;-60
2023/05/27 04:25:48;;;;;;;10.50;5.83;;;13.20;88.40;;;;;;5091800;27;20476;-60
2023/05/27 04:28:15;;;;;;;21.80;6.77;;;13.20;88.30;;;;;;5080636;27;20474;-60
2023/05/27 04:30:43;;;;;;;18.57;6.60;;;13.20;88.30;;;;;;5069868;28;20986;-60
2023/05/27 04:33:11;;;;;;;15.37;6.17;;;13.30;87.70;;;;;;5063337;28;20470;-60
2023/05/27 04:35:37;;;;;;;12.00;5.60;;;13.30;88.00;;;;;;5080361;27;20959;-60
2023/05/27 04:38:04;;;;;;;15.07;5.83;;;13.30;88.60;;;;;;5066198;27;20485;-60
2023/05/27 04:40:34;;;;;;;14.80;5.40;;;13.30;88.80;;;;;;5070007;28;20986;-60
2023/05/27 04:43:01;;;;;;;22.77;6.17;;;13.40;88.80;;;;;;5056342;28;20483;-60
2023/05/27 04:45:29;;;;;;;20.43;6.23;;;13.40;87.90;;;;;;5064996;27;21010;-60
2023/05/27 04:47:57;;;;;;;12.30;5.80;;;13.40;88.60;;;;;;5082322;27;21109;-60
2023/05/27 04:50:24;;;;;;;10.13;4.43;;;13.50;88.80;;;;;;5065718;28;20473;-60
2023/05/27 04:52:53;;;;;;;18.13;5.87;;;13.60;89.10;;;;;;5071302;28;20475;-60
2023/05/27 04:55:20;;;;;;;12.93;6.60;;;13.70;88.60;;;;;;5087163;27;20461;-60
2023/05/27 04:57:47;;;;;;;19.00;5.43;;;13.70;88.40;;;;;;5050970;28;20475;-60
2023/05/27 05:00:33;;;;;;;16.43;6.80;;;13.80;88.70;;;;;;5069453;27;20461;-60
2023/05/27 05:03:02;;;;;;;14.70;6.77;;;13.90;89.30;;;;;;5074346;27;20487;-60
2023/05/27 05:05:29;;;;;;;14.07;5.47;;;14.00;88.70;;;;;;5089664;27;20496;-60
2023/05/27 05:07:56;;;;;;;12.40;5.07;;;14.10;88.60;;;;;;5066741;27;21192;-60
2023/05/27 05:10:23;;;;;;;14.50;5.80;;;14.20;88.70;;;;;;5092353;27;20496;-60
2023/05/27 05:12:50;;;;;;;17.40;6.07;;;14.20;89.10;;;;;;5079613;28;21227;-59
2023/05/27 05:15:17;;;;;;;19.53;6.40;;;14.40;88.10;;;;;;5069331;28;20578;-59
2023/05/27 05:17:44;;;;;;;12.23;6.00;;;14.40;87.50;;;;;;5091737;27;21026;-60
2023/05/27 05:20:13;;;;;;;11.40;6.33;;;14.50;88.60;;;;;;5084227;27;21075;-60
2023/05/27 05:22:40;;;;;;;13.13;5.53;;;14.60;88.50;;;;;;5061529;27;20980;-60
2023/05/27 05:25:07;;;;;;;18.40;6.30;;;14.70;89.00;;;;;;5072789;27;20477;-59
2023/05/27 05:27:36;;;;;;;12.67;4.90;;;14.70;88.60;;;;;;5079172;27;20497;-60
2023/05/27 05:30:04;;;;;;;12.03;5.40;;;14.80;88.60;;;;;;5057523;27;20480;-60
2023/05/27 05:32:30;;;;;;;17.23;6.03;;;14.90;88.60;;;;;;5073179;27;20470;-59
2023/05/27 05:34:57;;;;;;;16.43;5.63;;;15.00;88.60;;;;;;5070073;27;20487;-60
2023/05/27 05:37:25;;;;;;;25.37;5.90;;;15.00;87.90;;;;;;5074179;27;20840;-60
2023/05/27 05:39:54;;;;;;;15.03;4.90;;;15.00;88.40;;;;;;5093612;27;20474;-60
2023/05/27 05:42:21;;;;;;;18.10;5.67;;;15.10;87.50;;;;;;5089222;27;20890;-60
2023/05/27 05:44:48;;;;;;;14.90;5.03;;;15.20;87.70;;;;;;5063962;28;20474;-60
2023/05/27 05:47:15;;;;;;;11.40;5.73;;;15.20;87.50;;;;;;5073076;27;21087;-60
2023/05/27 05:49:42;;;;;;;11.57;5.20;;;15.30;87.50;;;;;;5071804;27;20503;-60
2023/05/27 05:52:09;;;;;;;14.63;6.13;;;15.30;87.50;;;;;;5068493;27;21016;-60
2023/05/27 05:54:37;;;;;;;9.80;5.50;;;15.30;86.80;;;;;;5082781;27;20476;-60
2023/05/27 05:57:05;;;;;;;11.53;5.20;;;15.40;88.10;;;;;;5098775;27;20529;-60
2023/05/27 05:59:32;;;;;;;21.30;5.67;;;15.50;87.70;;;;;;5070282;27;20494;-60
2023/05/27 06:01:59;;;;;;;11.40;4.80;;;15.60;87.10;;;;;;5068959;28;20484;-61
2023/05/27 06:04:25;;;;;;;12.90;4.80;;;15.70;87.50;;;;;;5069917;28;20479;-60
2023/05/27 06:06:52;;;;;;;11.53;5.30;;;15.80;87.30;;;;;;5077650;27;20793;-61
2023/05/27 06:09:19;;;;;;;10.90;4.70;;;15.80;87.10;;;;;;5082756;27;20466;-60
2023/05/27 06:11:47;;;;;;;14.30;5.30;;;15.80;86.30;;;;;;5068862;28;20632;-61
2023/05/27 06:14:14;;;;;;;12.80;4.33;;;15.90;86.60;;;;;;5070919;27;20472;-61
2023/05/27 06:16:41;;;;;;;19.33;4.70;;;15.90;87.10;;;;;;5080109;27;20482;-60
2023/05/27 06:19:08;;;;;;;17.27;5.23;;;16.00;86.90;;;;;;5062463;28;20478;-61
2023/05/27 06:21:35;;;;;;;12.33;5.20;;;16.10;87.20;;;;;;5070557;28;20474;-61
2023/05/27 06:24:02;;;;;;;21.87;5.60;;;16.20;86.00;;;;;;5069096;28;20527;-61
2023/05/27 06:26:28;;;;;;;14.43;5.33;;;16.30;85.40;;;;;;5069876;28;20867;-61
2023/05/27 06:28:57;;;;;;;15.73;3.87;;;16.40;85.10;;;;;;5068400;28;20486;-61
2023/05/27 06:31:23;;;;;;;10.70;4.43;;;16.50;85.60;;;;;;5067337;28;20467;-61
2023/05/27 06:33:50;;;;;;;20.30;4.93;;;16.60;85.40;;;;;;5063098;28;21045;-61
2023/05/27 06:36:18;;;;;;;13.57;5.47;;;16.80;85.90;;;;;;5070547;28;20492;-60
2023/05/27 06:38:45;;;;;;;11.03;4.77;;;16.90;85.60;;;;;;5071233;28;20600;-60
2023/05/27 06:41:12;;;;;;;13.40;5.13;;;17.00;84.90;;;;;;5079627;27;20473;-60
2023/05/27 06:43:39;;;;;;;12.70;5.00;;;17.10;84.00;;;;;;5098737;28;20868;-61
2023/05/27 06:46:07;;;;;;;14.20;5.40;;;17.20;84.50;;;;;;5070085;28;20490;-61
2023/05/27 06:48:34;;;;;;;14.07;5.53;;;17.30;84.80;;;;;;5071753;28;20467;-60
2023/05/27 06:51:01;;;;;;;14.33;4.67;;;17.50;84.00;;;;;;5070992;28;20524;-61
2023/05/27 06:53:28;;;;;;;19.10;5.00;;;17.60;84.10;;;;;;5068774;28;20485;-60
2023/05/27 06:55:55;;;;;;;9.90;4.60;;;17.70;83.20;;;;;;5068552;28;20950;-61
2023/05/27 06:58:21;;;;;;;14.93;4.97;;;17.90;83.90;;;;;;5067432;28;20837;-60
2023/05/27 07:00:48;;;;;;;10.63;5.07;;;18.00;83.70;;;;;;5073298;27;20746;-60
2023/05/27 07:03:16;;;;;;;13.10;5.40;;;18.20;82.60;;;;;;5090928;28;20715;-61
2023/05/27 07:05:43;;;;;;;11.50;5.33;;;18.30;82.10;;;;;;5072718;28;20482;-61
2023/05/27 07:08:10;;;;;;;14.63;4.83;;;18.40;82.70;;;;;;5072561;28;20841;-60
2023/05/27 07:10:37;;;;;;;17.00;5.10;;;18.50;81.60;;;;;;5074647;28;21064;-60
2023/05/27 07:13:04;;;;;;;11.93;4.77;;;18.70;81.50;;;;;;5074220;28;20479;-60
2023/05/27 07:15:31;;;;;;;19.10;4.63;;;18.70;80.30;;;;;;5074606;28;20591;-60
2023/05/27 07:17:58;;;;;;;8.93;3.80;;;18.90;81.50;;;;;;5073965;28;20539;-61
2023/05/27 07:20:26;;;;;;;11.20;4.87;;;19.00;82.20;;;;;;5073836;28;20475;-60
2023/05/27 07:22:53;;;;;;;10.93;4.20;;;19.30;81.70;;;;;;5070370;28;20491;-60
2023/05/27 07:25:20;;;;;;;10.43;4.50;;;19.40;80.50;;;;;;5062983;28;21383;-60
2023/05/27 07:27:47;;;;;;;13.40;4.73;;;19.60;81.10;;;;;;5071934;28;20490;-60
2023/05/27 07:30:15;;;;;;;14.60;4.57;;;19.70;79.10;;;;;;5074162;28;20794;-61
2023/05/27 07:32:42;;;;;;;9.40;4.93;;;19.80;79.10;;;;;;5072694;27;20475;-61
2023/05/27 07:35:09;;;;;;;14.67;5.10;;;19.80;79.50;;;;;;5072570;28;20848;-61
2023/05/27 07:37:37;;;;;;;15.83;5.00;;;20.00;80.70;;;;;;5095938;27;20474;-61
2023/05/27 07:40:05;;;;;;;12.53;4.73;;;20.10;78.90;;;;;;5073597;28;20810;-60
2023/05/27 07:42:32;;;;;;;11.20;3.93;;;20.30;80.30;;;;;;5066884;28;20474;-61
2023/05/27 07:44:59;;;;;;;8.83;4.10;;;20.40;78.90;;;;;;5070390;28;20478;-61
2023/05/27 07:47:26;;;;;;;11.60;4.40;;;20.50;79.50;;;;;;5069848;28;20593;-61
2023/05/27 07:49:52;;;;;;;13.53;4.27;;;20.60;78.30;;;;;;5073842;28;20482;-61
2023/05/27 07:52:19;;;;;;;13.07;4.40;;;20.70;78.10;;;;;;5073058;28;20476;-61
2023/05/27 07:54:48;;;;;;;13.37;4.87;;;20.90;78.80;;;;;;5074291;28;20802;-61
2023/05/27 07:57:16;;;;;;;13.77;5.10;;;21.10;78.90;;;;;;5095909;27;20662;-61
2023/05/27 07:59:43;;;;;;;13.33;5.30;;;21.30;78.60;;;;;;5072000;28;20567;-61
2023/05/27 08:02:10;;;;;;;11.60;5.03;;;21.40;78.00;;;;;;5073939;28;20506;-61
2023/05/27 08:04:37;;;;;;;9.30;4.50;;;21.50;76.80;;;;;;5070911;28;20481;-61
2023/05/27 08:07:04;;;;;;;12.63;6.03;;;21.50;76.90;;;;;;5071285;28;20915;-61
2023/05/27 08:09:32;;;;;;;15.10;4.87;;;21.70;77.70;;;;;;5076621;27;20481;-62
2023/05/27 08:12:00;;;;;;;10.77;4.77;;;21.70;77.50;;;;;;5092683;27;21179;-62
2023/05/27 08:14:28;;;;;;;12.03;5.00;;;21.80;76.70;;;;;;5072680;28;20516;-62
2023/05/27 08:16:55;;;;;;;11.10;4.43;;;22.00;78.00;;;;;;5071465;28;20539;-61
2023/05/27 08:19:22;;;;;;;8.50;4.70;;;22.10;78.10;;;;;;5068383;27;20577;-61
2023/05/27 08:21:48;;;;;;;11.60;4.77;;;22.20;77.10;;;;;;5074616;28;22120;-61
2023/05/27 08:24:15;;;;;;;13.53;5.60;;;22.40;78.00;;;;;;5071530;28;20504;-61
2023/05/27 08:26:42;;;;;;;7.90;4.23;;;22.40;78.40;;;;;;5098234;27;20478;-61
2023/05/27 08:29:10;;;;;;;12.60;4.67;;;22.50;77.10;;;;;;5073775;28;20471;-61
2023/05/27 08:31:38;;;;;;;9.87;4.60;;;22.50;75.00;;;;;;5073814;28;20478;-60
2023/05/27 08:34:05;;;;;;;13.27;4.37;;;22.60;76.70;;;;;;5085213;27;21052;-61
2023/05/27 08:36:32;;;;;;;16.90;4.47;;;22.60;76.10;;;;;;5074846;27;20826;-61
2023/05/27 08:39:00;;;;;;;12.17;5.20;;;22.70;76.60;;;;;;5072805;28;20474;-61
2023/05/27 08:41:28;;;;;;;20.23;5.60;;;22.80;75.70;;;;;;5073917;28;20833;-61
2023/05/27 08:43:55;;;;;;;10.90;4.40;;;22.80;75.30;;;;;;5069477;28;20474;-61
2023/05/27 08:46:23;;;;;;;11.20;4.40;;;22.80;74.80;;;;;;5072771;27;20832;-61
2023/05/27 08:48:50;;;;;;;15.80;4.27;;;22.90;75.70;;;;;;5065900;28;20478;-61
2023/05/27 08:51:19;;;;;;;8.70;4.33;;;23.10;78.10;;;;;;5072288;28;20475;-61
2023/05/27 08:53:47;;;;;;;20.87;5.33;;;23.30;76.90;;;;;;5070666;28;20560;-61
2023/05/27 08:56:16;;;;;;;10.83;5.17;;;23.70;75.60;;;;;;5063806;28;20482;-61
2023/05/27 08:58:43;;;;;;;9.70;5.17;;;23.70;76.10;;;;;;5072497;27;20997;-61
2023/05/27 09:01:11;;;;;;;9.63;4.57;;;23.90;76.40;;;;;;5100407;27;20476;-61
2023/05/27 09:03:39;;;;;;;15.07;4.70;;;24.00;76.00;;;;;;5081023;27;20483;-61
2023/05/27 09:06:06;;;;;;;8.10;4.30;;;24.10;75.90;;;;;;5065061;27;20479;-61
2023/05/27 09:08:33;;;;;;;9.40;5.10;;;24.20;76.10;;;;;;5096728;27;20478;-62
2023/05/27 09:11:00;;;;;;;16.33;5.70;;;24.20;75.40;;;;;;5086882;27;20452;-62
2023/05/27 09:13:28;;;;;;;16.33;5.23;;;24.20;73.20;;;;;;5078250;27;20838;-62
2023/05/27 09:16:00;;;;;;;18.07;5.50;;;24.20;73.60;;;;;;5083593;27;20479;-62
2023/05/27 09:18:28;;;;;;;10.70;5.40;;;24.00;73.40;;;;;;5071728;28;20483;-62
2023/05/27 09:20:56;;;;;;;11.53;5.10;;;24.10;74.10;;;;;;5072146;28;20456;-62
2023/05/27 09:23:23;;;;;;;12.53;5.97;;;24.10;73.90;;;;;;5067586;28;20839;-62
2023/05/27 09:25:50;;;;;;;14.07;5.87;;;24.20;74.10;;;;;;5091368;27;21032;-62
2023/05/27 09:28:22;;;;;;;12.20;4.63;;;24.30;73.10;;;;;;5068801;27;20536;-62
2023/05/27 09:30:53;;;;;;;17.50;5.67;;;24.30;73.40;;;;;;5069975;28;20540;-62
2023/05/27 09:33:25;;;;;;;13.60;5.70;;;24.40;76.00;;;;;;5064029;27;20471;-62
2023/05/27 09:35:51;;;;;;;17.43;6.33;;;24.40;75.30;;;;;;5091547;27;20479;-62
2023/05/27 09:38:20;;;;;;;11.50;5.07;;;24.50;73.70;;;;;;5062036;28;20852;-61
2023/05/27 09:40:47;;;;;;;13.17;5.00;;;24.40;75.10;;;;;;5088611;27;20834;-62
2023/05/27 09:43:15;;;;;;;12.17;4.90;;;24.40;75.70;;;;;;5062475;27;21039;-62
2023/05/27 09:45:43;;;;;;;16.33;6.13;;;24.40;75.00;;;;;;5094725;27;20482;-61
2023/05/27 09:48:12;;;;;;;11.53;4.87;;;24.40;75.80;;;;;;5064797;28;20471;-62
2023/05/27 09:50:40;;;;;;;13.27;6.23;;;24.50;75.10;;;;;;5061726;28;20540;-62
2023/05/27 09:53:08;;;;;;;7.70;4.87;;;24.40;74.00;;;;;;5071230;28;20573;-62
2023/05/27 09:55:36;;;;;;;13.27;5.00;;;24.50;77.40;;;;;;5063846;28;20518;-62
2023/05/27 09:58:03;;;;;;;11.33;5.40;;;24.60;77.50;;;;;;5064375;28;20453;-62
2023/05/27 10:00:32;;;;;;;9.57;5.30;;;24.70;75.10;;;;;;5090920;27;20477;-61
2023/05/27 10:03:02;;;;;;;9.43;5.23;;;24.90;75.90;;;;;;5070410;28;20461;-62
2023/05/27 10:05:30;;;;;;;10.23;4.60;;;25.00;76.00;;;;;;5071684;27;20551;-62
2023/05/27 10:07:57;;;;;;;11.30;5.63;;;25.20;73.90;;;;;;5074267;27;20480;-62
2023/05/27 10:10:25;;;;;;;13.37;5.53;;;25.30;77.20;;;;;;5063304;28;20505;-62
2023/05/27 10:12:55;;;;;;;11.23;5.07;;;25.40;75.10;;;;;;5065900;28;20522;-62
2023/05/27 10:15:23;;;;;;;11.83;4.70;;;25.50;76.00;;;;;;5067145;28;20537;-62
2023/05/27 10:17:54;;;;;;;13.17;6.10;;;25.60;74.00;;;;;;5065904;28;20470;-62
2023/05/27 10:20:31;;;;;;;10.70;5.10;;;25.60;72.60;;;;;;5070189;28;20968;-62
2023/05/27 10:23:11;;;;;;;9.80;5.43;;;25.60;73.40;;;;;;5076121;27;20669;-62
2023/05/27 10:25:38;;;;;;;14.80;5.60;;;25.60;72.90;;;;;;5074503;28;20486;-62
2023/05/27 10:28:07;;;;;;;10.13;4.57;;;25.70;73.90;;;;;;5066463;28;20457;-63
2023/05/27 10:30:44;;;;;;;12.03;5.60;;;25.70;72.10;;;;;;5065060;28;21224;-63
2023/05/27 10:33:11;;;;;;;10.43;5.30;;;25.80;74.00;;;;;;5063826;28;20471;-63
2023/05/27 10:35:41;;;;;;;9.60;5.10;;;25.80;73.10;;;;;;5061376;28;21775;-62
2023/05/27 10:38:16;;;;;;;12.80;6.47;;;25.80;76.20;;;;;;5051751;28;20473;-63
2023/05/27 10:40:43;;;;;;;17.60;5.43;;;25.90;73.90;;;;;;5051144;28;20473;-63
2023/05/27 10:43:18;;;;;;;13.93;5.73;;;26.00;75.60;;;;;;5077456;27;20486;-63
2023/05/27 10:45:45;;;;;;;10.40;5.70;;;26.10;78.10;;;;;;5066837;28;20486;-62
2023/05/27 10:48:22;;;;;;;18.57;6.50;;;26.20;75.90;;;;;;5065317;28;20482;-63
2023/05/27 10:50:52;;;;;;;13.03;6.20;;;26.20;72.10;;;;;;5074754;28;20481;-63
2023/05/27 10:53:20;;;;;;;10.13;5.77;;;26.30;71.40;;;;;;5067667;28;20480;-63
2023/05/27 10:55:49;;;;;;;10.10;5.50;;;26.40;73.90;;;;;;5066533;28;20473;-63
2023/05/27 10:58:21;;;;;;;14.50;7.23;;;26.50;72.80;;;;;;5072213;28;20833;-63
2023/05/27 11:00:51;;;;;;;18.13;6.40;;;26.60;73.60;;;;;;5064474;28;20476;-63
2023/05/27 11:03:22;;;;;;;13.23;6.00;;;26.70;74.30;;;;;;5069772;28;20455;-64
2023/05/27 11:05:58;;;;;;;14.40;5.93;;;26.80;73.40;;;;;;5070340;28;20475;-62
2023/05/27 11:08:25;;;;;;;16.57;5.33;;;26.60;70.60;;;;;;5056470;27;20840;-62
2023/05/27 11:10:51;;;;;;;13.10;5.20;;;26.60;71.00;;;;;;5090241;27;20472;-62
2023/05/27 11:13:20;;;;;;;12.80;6.00;;;26.70;73.70;;;;;;5068032;28;20488;-62
2023/05/27 11:15:46;;;;;;;12.40;6.10;;;26.70;75.70;;;;;;5071511;28;20915;-62
2023/05/27 11:18:15;;;;;;;13.20;6.87;;;26.70;73.50;;;;;;5062205;27;20934;-62
2023/05/27 11:20:42;;;;;;;9.77;6.20;;;26.90;73.00;;;;;;5089340;27;20537;-62
2023/05/27 11:23:08;;;;;;;15.00;8.00;;;27.00;73.60;;;;;;5057782;27;20484;-63
2023/05/27 11:25:45;;;;;;;14.60;6.40;;;27.00;71.30;;;;;;5074419;28;20443;-63
2023/05/27 11:28:17;;;;;;;11.23;6.33;;;27.00;71.70;;;;;;5073029;28;20447;-63
2023/05/27 11:30:45;;;;;;;14.83;5.90;;;27.10;72.50;;;;;;5071419;27;20471;-63
2023/05/27 11:33:12;;;;;;;10.23;6.73;;;27.00;72.20;;;;;;5095724;27;20985;-63
2023/05/27 11:35:39;;;;;;;11.07;5.90;;;27.10;73.80;;;;;;5094506;27;20482;-63
2023/05/27 11:38:06;;;;;;;13.50;8.00;;;27.10;74.00;;;;;;5067639;28;20458;-63
2023/05/27 11:40:36;;;;;;;14.27;8.90;;;27.00;73.00;;;;;;5081069;27;20474;-63
2023/05/27 11:43:03;;;;;;;12.00;8.57;;;27.10;73.70;;;;;;5095885;27;20465;-63
2023/05/27 11:45:31;;;;;;;10.40;7.40;;;27.00;67.50;;;;;;5095281;27;20468;-64
2023/05/27 11:47:59;;;;;;;13.73;7.77;;;26.90;68.90;;;;;;5054053;27;20497;-63
2023/05/27 11:50:27;;;;;;;9.80;7.83;;;27.20;72.50;;;;;;5088831;27;20699;-64
2023/05/27 11:52:55;;;;;;;12.63;8.30;;;27.20;69.30;;;;;;5048528;27;20911;-63
2023/05/27 11:55:22;;;;;;;11.93;8.37;;;27.20;71.10;;;;;;5071450;27;20486;-63
2023/05/27 11:57:49;;;;;;;13.17;8.83;;;27.10;69.40;;;;;;5097526;27;20536;-63
2023/05/27 12:00:17;;;;;;;11.90;9.03;;;27.10;69.80;;;;;;5045344;28;21065;-63
2023/05/27 12:02:45;;;;;;;10.30;7.70;;;27.10;68.00;;;;;;5090800;27;20460;-63
2023/05/27 12:05:13;;;;;;;9.50;7.73;;;27.00;72.20;;;;;;5060153;27;20551;-63
2023/05/27 12:07:40;;;;;;;9.43;7.63;;;27.00;69.70;;;;;;5068501;27;20451;-63
2023/05/27 12:10:08;;;;;;;10.73;8.03;;;27.00;70.30;;;;;;5091672;27;20478;-63
2023/05/27 12:12:36;;;;;;;12.70;8.37;;;27.10;70.30;;;;;;5064047;27;20484;-63
2023/05/27 12:15:03;;;;;;;12.67;7.30;;;27.20;72.90;;;;;;5067167;27;20601;-63
2023/05/27 12:17:30;;;;;;;10.77;7.40;;;27.30;71.20;;;;;;5077520;27;20491;-63
2023/05/27 12:19:57;;;;;;;13.33;7.50;;;27.40;69.50;;;;;;5085365;27;20581;-63
2023/05/27 12:22:25;;;;;;;11.73;8.20;;;27.40;70.40;;;;;;5091879;27;20876;-63
2023/05/27 12:24:52;;;;;;;10.37;7.90;;;27.40;70.60;;;;;;5082443;27;20445;-63
2023/05/27 12:27:20;;;;;;;8.37;7.43;;;27.40;71.70;;;;;;5073359;27;21362;-63
2023/05/27 12:29:47;;;;;;;15.30;8.00;;;27.60;71.80;;;;;;5082443;27;20483;-64
2023/05/27 12:32:14;;;;;;;12.67;7.80;;;27.70;71.80;;;;;;5081863;27;20486;-63
2023/05/27 12:34:41;;;;;;;15.50;7.90;;;27.40;67.70;;;;;;5074578;27;20455;-63
2023/05/27 12:37:08;;;;;;;16.20;8.07;;;27.20;69.20;;;;;;5063391;28;20999;-63
2023/05/27 12:39:36;;;;;;;11.30;7.83;;;27.10;67.30;;;;;;5070605;28;20461;-63
2023/05/27 12:42:03;;;;;;;14.67;6.97;;;26.60;65.50;;;;;;5083096;27;20480;-64